sensor_id;sensor_type;location;lat;lon;timestamp;pressure;altitude;pressure_sealevel;temperature;humidity
14818;BME280;7500;57.698;11.986;2023-01-28T00:01:06;102796.78;;;4.34;100.00
14818;BME280;7500;57.698;11.986;2023-01-28T00:03:33;102789.81;;;4.38;100.00
14818;BME280;7500;57.698;11.986;2023-01-28T00:06:04;102790.75;;;4.47;100.00
14818;BME280;7500;57.698;11.986;2023-01-28T00:08:31;102782.06;;;4.51;100.00
14818;BME280;7500;57.698;11.986;2023-01-28T00:10:58;102779.47;;;4.52;100.00
14818;BME280;7500;57.698;11.986;2023-01-28T00:13:26;102766.31;;;4.43;100.00
14818;BME280;7500;57.698;11.986;2023-01-28T00:15:59;102774.22;;;4.51;100.00
14818;BME280;7500;57.698;11.986;2023-01-28T00:18:26;102782.97;;;4.59;100.00
14818;BME280;7500;57.698;11.986;2023-01-28T00:20:58;102772.47;;;4.51;100.00
14818;BME280;7500;57.698;11.986;2023-01-28T00:23:25;102773.31;;;4.44;100.00
14818;BME280;7500;57.698;11.986;2023-01-28T00:25:52;102769.81;;;4.47;100.00
14818;BME280;7500;57.698;11.986;2023-01-28T00:28:19;102764.56;;;4.43;100.00
14818;BME280;7500;57.698;11.986;2023-01-28T00:30:46;102757.59;;;4.46;100.00
14818;BME280;7500;57.698;11.986;2023-01-28T00:33:15;102766.31;;;4.42;100.00
14818;BME280;7500;57.698;11.986;2023-01-28T00:35:41;102761.97;;;4.47;100.00
14818;BME280;7500;57.698;11.986;2023-01-28T00:38:09;102756.81;;;4.54;100.00
14818;BME280;7500;57.698;11.986;2023-01-28T00:40:36;102745.47;;;4.55;100.00
14818;BME280;7500;57.698;11.986;2023-01-28T00:43:03;102713.94;;;4.29;100.00
14818;BME280;7500;57.698;11.986;2023-01-28T00:45:30;102741.91;;;4.43;100.00
14818;BME280;7500;57.698;11.986;2023-01-28T00:47:57;102743.72;;;4.51;100.00
14818;BME280;7500;57.698;11.986;2023-01-28T00:50:25;102742.00;;;4.58;100.00
14818;BME280;7500;57.698;11.986;2023-01-28T00:52:52;102731.53;;;4.58;100.00
14818;BME280;7500;57.698;11.986;2023-01-28T00:55:18;102722.75;;;4.50;100.00
14818;BME280;7500;57.698;11.986;2023-01-28T00:57:45;102718.44;;;4.55;100.00
14818;BME280;7500;57.698;11.986;2023-01-28T01:00:13;102719.31;;;4.54;100.00
14818;BME280;7500;57.698;11.986;2023-01-28T01:02:41;102721.91;;;4.49;100.00
14818;BME280;7500;57.698;11.986;2023-01-28T01:05:08;102710.56;;;4.49;100.00
14818;BME280;7500;57.698;11.986;2023-01-28T01:07:36;102702.72;;;4.52;100.00
14818;BME280;7500;57.698;11.986;2023-01-28T01:10:09;102705.34;;;4.50;100.00
14818;BME280;7500;57.698;11.986;2023-01-28T01:12:36;102701.84;;;4.53;100.00
14818;BME280;7500;57.698;11.986;2023-01-28T01:15:04;102694.88;;;4.55;100.00
14818;BME280;7500;57.698;11.986;2023-01-28T01:17:34;102693.19;;;4.58;100.00
14818;BME280;7500;57.698;11.986;2023-01-28T01:20:02;102697.50;;;4.55;100.00
14818;BME280;7500;57.698;11.986;2023-01-28T01:22:32;102680.94;;;4.56;100.00
14818;BME280;7500;57.698;11.986;2023-01-28T01:25:00;102684.44;;;4.55;100.00
14818;BME280;7500;57.698;11.986;2023-01-28T01:27:28;102687.03;;;4.52;100.00
14818;BME280;7500;57.698;11.986;2023-01-28T01:29:55;102680.94;;;4.53;100.00
14818;BME280;7500;57.698;11.986;2023-01-28T01:32:23;102680.97;;;4.62;100.00
14818;BME280;7500;57.698;11.986;2023-01-28T01:34:50;102665.28;;;4.62;100.00
14818;BME280;7500;57.698;11.986;2023-01-28T01:37:17;102664.41;;;4.63;100.00
14818;BME280;7500;57.698;11.986;2023-01-28T01:39:44;102664.41;;;4.64;100.00
14818;BME280;7500;57.698;11.986;2023-01-28T01:42:13;102681.00;;;4.71;100.00
14818;BME280;7500;57.698;11.986;2023-01-28T01:45:00;102648.75;;;4.73;100.00
14818;BME280;7500;57.698;11.986;2023-01-28T01:47:33;102657.47;;;4.78;100.00
14818;BME280;7500;57.698;11.986;2023-01-28T01:50:04;102659.22;;;4.75;100.00
14818;BME280;7500;57.698;11.986;2023-01-28T01:52:34;102660.09;;;4.83;100.00
14818;BME280;7500;57.698;11.986;2023-01-28T01:55:06;102661.81;;;4.81;100.00
14818;BME280;7500;57.698;11.986;2023-01-28T01:57:36;102642.63;;;4.76;100.00
14818;BME280;7500;57.698;11.986;2023-01-28T02:00:05;102647.88;;;4.73;100.00
14818;BME280;7500;57.698;11.986;2023-01-28T02:02:36;102654.00;;;4.75;100.00
14818;BME280;7500;57.698;11.986;2023-01-28T02:05:04;102656.59;;;4.81;100.00
14818;BME280;7500;57.698;11.986;2023-01-28T02:07:32;102648.75;;;4.84;100.00
14818;BME280;7500;57.698;11.986;2023-01-28T02:09:59;102638.28;;;4.78;100.00
14818;BME280;7500;57.698;11.986;2023-01-28T02:12:28;102644.41;;;4.86;100.00
14818;BME280;7500;57.698;11.986;2023-01-28T02:15:01;102647.03;;;4.92;100.00
14818;BME280;7500;57.698;11.986;2023-01-28T02:17:28;102640.94;;;4.93;100.00
14818;BME280;7500;57.698;11.986;2023-01-28T02:19:58;102641.81;;;4.99;100.00
14818;BME280;7500;57.698;11.986;2023-01-28T02:28:44;102620.00;;;5.00;100.00
14818;BME280;7500;57.698;11.986;2023-01-28T02:31:18;102620.00;;;4.93;100.00
14818;BME280;7500;57.698;11.986;2023-01-28T02:33:51;102614.75;;;4.93;100.00
14818;BME280;7500;57.698;11.986;2023-01-28T02:36:27;102615.63;;;4.92;100.00
14818;BME280;7500;57.698;11.986;2023-01-28T02:38:58;102609.53;;;4.96;100.00
14818;BME280;7500;57.698;11.986;2023-01-28T02:41:30;102612.13;;;4.97;100.00
14818;BME280;7500;57.698;11.986;2023-01-28T02:44:01;102606.06;;;5.03;100.00
14818;BME280;7500;57.698;11.986;2023-01-28T02:46:36;102602.56;;;5.01;100.00
14818;BME280;7500;57.698;11.986;2023-01-28T02:49:24;102590.31;;;5.01;100.00
14818;BME280;7500;57.698;11.986;2023-01-28T02:52:13;102566.78;;;4.94;100.00
14818;BME280;7500;57.698;11.986;2023-01-28T02:54:49;102591.22;;;5.05;100.00
14818;BME280;7500;57.698;11.986;2023-01-28T02:57:29;102586.84;;;5.11;100.00
14818;BME280;7500;57.698;11.986;2023-01-28T03:00:03;102592.09;;;5.10;100.00
14818;BME280;7500;57.698;11.986;2023-01-28T03:02:36;102592.97;;;5.09;100.00
14818;BME280;7500;57.698;11.986;2023-01-28T03:05:09;102584.22;;;5.11;100.00
14818;BME280;7500;57.698;11.986;2023-01-28T03:07:40;102572.88;;;5.14;100.00
14818;BME280;7500;57.698;11.986;2023-01-28T03:10:09;102575.50;;;5.20;100.00
14818;BME280;7500;57.698;11.986;2023-01-28T03:12:39;102562.41;;;5.17;100.00
14818;BME280;7500;57.698;11.986;2023-01-28T03:15:28;102569.38;;;5.18;100.00
14818;BME280;7500;57.698;11.986;2023-01-28T03:18:17;102568.53;;;5.08;100.00
14818;BME280;7500;57.698;11.986;2023-01-28T03:21:06;102575.50;;;5.12;100.00
14818;BME280;7500;57.698;11.986;2023-01-28T03:23:54;102572.88;;;5.11;100.00
14818;BME280;7500;57.698;11.986;2023-01-28T03:26:44;102560.69;;;5.07;100.00
14818;BME280;7500;57.698;11.986;2023-01-28T03:29:32;102547.56;;;5.05;100.00
14818;BME280;7500;57.698;11.986;2023-01-28T03:32:18;102544.94;;;5.13;100.00
14818;BME280;7500;57.698;11.986;2023-01-28T03:35:05;102550.19;;;5.14;100.00
14818;BME280;7500;57.698;11.986;2023-01-28T03:37:51;102531.00;;;5.11;100.00
14818;BME280;7500;57.698;11.986;2023-01-28T03:40:19;102539.72;;;5.13;100.00
14818;BME280;7500;57.698;11.986;2023-01-28T03:42:45;102538.84;;;5.12;100.00
14818;BME280;7500;57.698;11.986;2023-01-28T03:45:13;102542.38;;;5.07;100.00
14818;BME280;7500;57.698;11.986;2023-01-28T03:47:41;102536.25;;;5.05;100.00
14818;BME280;7500;57.698;11.986;2023-01-28T03:50:09;102536.22;;;5.03;100.00
14818;BME280;7500;57.698;11.986;2023-01-28T03:52:36;102548.44;;;5.10;100.00
14818;BME280;7500;57.698;11.986;2023-01-28T03:55:04;102524.88;;;5.15;100.00
14818;BME280;7500;57.698;11.986;2023-01-28T03:57:38;102544.06;;;5.20;100.00
14818;BME280;7500;57.698;11.986;2023-01-28T04:00:06;102528.38;;;5.20;100.00
14818;BME280;7500;57.698;11.986;2023-01-28T04:02:34;102532.72;;;5.24;100.00
14818;BME280;7500;57.698;11.986;2023-01-28T04:05:07;102536.19;;;5.27;100.00
14818;BME280;7500;57.698;11.986;2023-01-28T04:07:37;102534.47;;;5.28;100.00
14818;BME280;7500;57.698;11.986;2023-01-28T04:10:05;102529.22;;;5.32;100.00
14818;BME280;7500;57.698;11.986;2023-01-28T04:12:33;102528.38;;;5.32;100.00
14818;BME280;7500;57.698;11.986;2023-01-28T04:15:04;102530.09;;;5.28;100.00
14818;BME280;7500;57.698;11.986;2023-01-28T04:17:42;102537.94;;;5.28;100.00
14818;BME280;7500;57.698;11.986;2023-01-28T04:20:12;102531.84;;;5.25;100.00
14818;BME280;7500;57.698;11.986;2023-01-28T04:22:39;102523.13;;;5.26;100.00
14818;BME280;7500;57.698;11.986;2023-01-28T04:25:07;102527.50;;;5.21;100.00
14818;BME280;7500;57.698;11.986;2023-01-28T04:27:35;102524.88;;;5.24;100.00
14818;BME280;7500;57.698;11.986;2023-01-28T04:30:02;102518.75;;;5.28;100.00
14818;BME280;7500;57.698;11.986;2023-01-28T04:32:29;102506.53;;;5.30;100.00
14818;BME280;7500;57.698;11.986;2023-01-28T04:34:56;102508.28;;;5.31;100.00
14818;BME280;7500;57.698;11.986;2023-01-28T04:37:24;102510.91;;;5.37;100.00
14818;BME280;7500;57.698;11.986;2023-01-28T04:39:51;102504.78;;;5.38;100.00
14818;BME280;7500;57.698;11.986;2023-01-28T04:42:18;102497.78;;;5.43;100.00
14818;BME280;7500;57.698;11.986;2023-01-28T04:44:44;102504.75;;;5.42;100.00
14818;BME280;7500;57.698;11.986;2023-01-28T04:47:11;102515.25;;;5.39;100.00
14818;BME280;7500;57.698;11.986;2023-01-28T04:49:38;102512.63;;;5.42;100.00
14818;BME280;7500;57.698;11.986;2023-01-28T04:52:05;102504.78;;;5.41;100.00
14818;BME280;7500;57.698;11.986;2023-01-28T04:54:33;102491.69;;;5.33;100.00
14818;BME280;7500;57.698;11.986;2023-01-28T04:57:00;102494.28;;;5.42;100.00
14818;BME280;7500;57.698;11.986;2023-01-28T04:59:27;102478.59;;;5.41;100.00
14818;BME280;7500;57.698;11.986;2023-01-28T05:01:54;102475.91;;;5.47;100.00
14818;BME280;7500;57.698;11.986;2023-01-28T05:04:21;102470.72;;;5.44;100.00
14818;BME280;7500;57.698;11.986;2023-01-28T05:06:47;102469.84;;;5.42;100.00
14818;BME280;7500;57.698;11.986;2023-01-28T05:09:14;102462.00;;;5.42;100.00
14818;BME280;7500;57.698;11.986;2023-01-28T05:11:43;102461.97;;;5.43;100.00
14818;BME280;7500;57.698;11.986;2023-01-28T05:14:09;102457.63;;;5.41;100.00
14818;BME280;7500;57.698;11.986;2023-01-28T05:16:36;102455.84;;;5.46;100.00
14818;BME280;7500;57.698;11.986;2023-01-28T05:19:03;102452.38;;;5.45;100.00
14818;BME280;7500;57.698;11.986;2023-01-28T05:21:30;102434.94;;;5.43;100.00
14818;BME280;7500;57.698;11.986;2023-01-28T05:23:57;102435.75;;;5.45;100.00
14818;BME280;7500;57.698;11.986;2023-01-28T05:26:24;102444.47;;;5.50;100.00
14818;BME280;7500;57.698;11.986;2023-01-28T05:28:52;102444.50;;;5.48;100.00
14818;BME280;7500;57.698;11.986;2023-01-28T05:31:19;102441.88;;;5.54;100.00
14818;BME280;7500;57.698;11.986;2023-01-28T05:33:46;102450.59;;;5.52;100.00
14818;BME280;7500;57.698;11.986;2023-01-28T05:36:12;102428.81;;;5.36;100.00
14818;BME280;7500;57.698;11.986;2023-01-28T05:38:39;102446.22;;;5.48;100.00
14818;BME280;7500;57.698;11.986;2023-01-28T05:41:06;102446.22;;;5.51;100.00
14818;BME280;7500;57.698;11.986;2023-01-28T05:43:33;102444.50;;;5.51;100.00
14818;BME280;7500;57.698;11.986;2023-01-28T05:46:01;102441.00;;;5.49;100.00
14818;BME280;7500;57.698;11.986;2023-01-28T05:48:28;102448.00;;;5.50;100.00
14818;BME280;7500;57.698;11.986;2023-01-28T05:50:55;102450.59;;;5.53;100.00
14818;BME280;7500;57.698;11.986;2023-01-28T05:53:22;102453.25;;;5.47;100.00
14818;BME280;7500;57.698;11.986;2023-01-28T05:55:49;102443.63;;;5.48;100.00
14818;BME280;7500;57.698;11.986;2023-01-28T05:58:16;102438.38;;;5.51;100.00
14818;BME280;7500;57.698;11.986;2023-01-28T06:00:43;102442.75;;;5.49;100.00
14818;BME280;7500;57.698;11.986;2023-01-28T06:03:11;102452.34;;;5.53;100.00
14818;BME280;7500;57.698;11.986;2023-01-28T06:05:38;102467.19;;;5.55;100.00
14818;BME280;7500;57.698;11.986;2023-01-28T06:08:05;102451.47;;;5.52;100.00
14818;BME280;7500;57.698;11.986;2023-01-28T06:10:33;102461.97;;;5.52;100.00
14818;BME280;7500;57.698;11.986;2023-01-28T06:12:59;102468.94;;;5.56;100.00
14818;BME280;7500;57.698;11.986;2023-01-28T06:15:26;102454.06;;;5.56;100.00
14818;BME280;7500;57.698;11.986;2023-01-28T06:17:53;102453.22;;;5.53;100.00
14818;BME280;7500;57.698;11.986;2023-01-28T06:20:21;102458.47;;;5.53;100.00
14818;BME280;7500;57.698;11.986;2023-01-28T06:22:49;102459.31;;;5.56;100.00
14818;BME280;7500;57.698;11.986;2023-01-28T06:25:16;102461.03;;;5.60;100.00
14818;BME280;7500;57.698;11.986;2023-01-28T06:27:43;102450.56;;;5.57;100.00
14818;BME280;7500;57.698;11.986;2023-01-28T06:30:11;102434.00;;;5.55;100.00
14818;BME280;7500;57.698;11.986;2023-01-28T06:32:38;102444.41;;;5.63;100.00
14818;BME280;7500;57.698;11.986;2023-01-28T06:35:05;102449.69;;;5.61;100.00
14818;BME280;7500;57.698;11.986;2023-01-28T06:37:34;102449.72;;;5.60;100.00
14818;BME280;7500;57.698;11.986;2023-01-28T06:40:01;102443.56;;;5.59;100.00
14818;BME280;7500;57.698;11.986;2023-01-28T06:42:28;102436.59;;;5.61;100.00
14818;BME280;7500;57.698;11.986;2023-01-28T06:44:55;102444.47;;;5.58;100.00
14818;BME280;7500;57.698;11.986;2023-01-28T06:47:22;102449.72;;;5.60;100.00
14818;BME280;7500;57.698;11.986;2023-01-28T06:49:48;102449.69;;;5.58;100.00
14818;BME280;7500;57.698;11.986;2023-01-28T06:52:15;102468.94;;;5.56;100.00
14818;BME280;7500;57.698;11.986;2023-01-28T06:54:43;102461.03;;;5.60;100.00
14818;BME280;7500;57.698;11.986;2023-01-28T06:57:10;102460.19;;;5.60;100.00
14818;BME280;7500;57.698;11.986;2023-01-28T06:59:37;102454.06;;;5.59;100.00
14818;BME280;7500;57.698;11.986;2023-01-28T07:02:04;102453.19;;;5.57;100.00
14818;BME280;7500;57.698;11.986;2023-01-28T07:04:31;102452.34;;;5.57;100.00
14818;BME280;7500;57.698;11.986;2023-01-28T07:06:58;102447.09;;;5.50;100.00
14818;BME280;7500;57.698;11.986;2023-01-28T07:09:25;102450.56;;;5.63;100.00
14818;BME280;7500;57.698;11.986;2023-01-28T07:11:53;102426.97;;;5.60;100.00
14818;BME280;7500;57.698;11.986;2023-01-28T07:14:20;102428.75;;;5.55;100.00
14818;BME280;7500;57.698;11.986;2023-01-28T07:16:47;102431.31;;;5.63;100.00
14818;BME280;7500;57.698;11.986;2023-01-28T07:19:14;102441.81;;;5.67;100.00
14818;BME280;7500;57.698;11.986;2023-01-28T07:21:41;102449.72;;;5.60;100.00
14818;BME280;7500;57.698;11.986;2023-01-28T07:24:08;102448.75;;;5.70;100.00
14818;BME280;7500;57.698;11.986;2023-01-28T07:26:34;102447.03;;;5.73;100.00
14818;BME280;7500;57.698;11.986;2023-01-28T07:29:03;102444.41;;;5.63;100.00
14818;BME280;7500;57.698;11.986;2023-01-28T07:31:29;102437.44;;;5.69;100.00
14818;BME280;7500;57.698;11.986;2023-01-28T07:33:56;102447.91;;;5.66;100.00
14818;BME280;7500;57.698;11.986;2023-01-28T07:36:23;102440.09;;;5.60;100.00
14818;BME280;7500;57.698;11.986;2023-01-28T07:38:50;102449.66;;;5.66;100.00
14818;BME280;7500;57.698;11.986;2023-01-28T07:41:17;102458.34;;;5.77;100.00
14818;BME280;7500;57.698;11.986;2023-01-28T07:43:44;102451.38;;;5.80;100.00
14818;BME280;7500;57.698;11.986;2023-01-28T07:46:12;102447.88;;;5.83;100.00
14818;BME280;7500;57.698;11.986;2023-01-28T07:48:39;102444.34;;;5.85;100.00
14818;BME280;7500;57.698;11.986;2023-01-28T07:51:06;102446.16;;;5.77;100.00
14818;BME280;7500;57.698;11.986;2023-01-28T07:53:32;102440.88;;;5.80;100.00
14818;BME280;7500;57.698;11.986;2023-01-28T07:56:00;102450.47;;;5.81;100.00
14818;BME280;7500;57.698;11.986;2023-01-28T07:58:27;102438.22;;;5.86;100.00
14818;BME280;7500;57.698;11.986;2023-01-28T08:00:56;102448.72;;;5.83;100.00
14818;BME280;7500;57.698;11.986;2023-01-28T08:03:25;102443.47;;;5.83;100.00
14818;BME280;7500;57.698;11.986;2023-01-28T08:05:54;102443.47;;;5.83;100.00
14818;BME280;7500;57.698;11.986;2023-01-28T08:08:22;102411.25;;;5.66;100.00
14818;BME280;7500;57.698;11.986;2023-01-28T08:10:49;102438.25;;;5.80;100.00
14818;BME280;7500;57.698;11.986;2023-01-28T08:13:17;102422.50;;;5.89;100.00
14818;BME280;7500;57.698;11.986;2023-01-28T08:15:45;102432.13;;;5.89;100.00
14818;BME280;7500;57.698;11.986;2023-01-28T08:18:14;102425.13;;;5.89;100.00
14818;BME280;7500;57.698;11.986;2023-01-28T08:20:43;102414.63;;;5.92;100.00
14818;BME280;7500;57.698;11.986;2023-01-28T08:23:16;102418.09;;;5.97;100.00
14818;BME280;7500;57.698;11.986;2023-01-28T08:25:43;102396.25;;;5.92;100.00
14818;BME280;7500;57.698;11.986;2023-01-28T08:28:10;102412.81;;;6.03;100.00
14818;BME280;7500;57.698;11.986;2023-01-28T08:30:37;102406.69;;;6.03;100.00
14818;BME280;7500;57.698;11.986;2023-01-28T08:33:06;102397.03;;;6.08;100.00
14818;BME280;7500;57.698;11.986;2023-01-28T08:35:34;102388.22;;;6.16;100.00
14818;BME280;7500;57.698;11.986;2023-01-28T08:38:04;102385.69;;;6.07;100.00
14818;BME280;7500;57.698;11.986;2023-01-28T08:40:31;102392.66;;;6.10;100.00
14818;BME280;7500;57.698;11.986;2023-01-28T08:42:58;102401.34;;;6.16;100.00
14818;BME280;7500;57.698;11.986;2023-01-28T08:45:26;102379.47;;;6.19;100.00
14818;BME280;7500;57.698;11.986;2023-01-28T08:47:55;102385.59;;;6.16;100.00
14818;BME280;7500;57.698;11.986;2023-01-28T08:50:24;102385.56;;;6.22;100.00
14818;BME280;7500;57.698;11.986;2023-01-28T08:52:54;102382.97;;;6.18;100.00
14818;BME280;7500;57.698;11.986;2023-01-28T08:55:23;102364.56;;;6.25;100.00
14818;BME280;7500;57.698;11.986;2023-01-28T08:57:51;102380.34;;;6.19;100.00
14818;BME280;7500;57.698;11.986;2023-01-28T09:00:18;102375.94;;;6.24;100.00
14818;BME280;7500;57.698;11.986;2023-01-28T09:02:46;102389.06;;;6.21;100.00
14818;BME280;7500;57.698;11.986;2023-01-28T09:05:16;102379.47;;;6.19;100.00
14818;BME280;7500;57.698;11.986;2023-01-28T09:07:43;102378.56;;;6.24;100.00
14818;BME280;7500;57.698;11.986;2023-01-28T09:10:10;102382.97;;;6.16;100.00
14818;BME280;7500;57.698;11.986;2023-01-28T09:12:38;102368.97;;;6.20;100.00
14818;BME280;7500;57.698;11.986;2023-01-28T09:15:06;102384.66;;;6.28;100.00
14818;BME280;7500;57.698;11.986;2023-01-28T09:17:34;102365.38;;;6.29;100.00
14818;BME280;7500;57.698;11.986;2023-01-28T09:20:00;102366.25;;;6.32;100.00
14818;BME280;7500;57.698;11.986;2023-01-28T09:22:29;102355.69;;;6.40;100.00
14818;BME280;7500;57.698;11.986;2023-01-28T09:24:55;102350.41;;;6.43;100.00
14818;BME280;7500;57.698;11.986;2023-01-28T09:27:22;102340.81;;;6.42;100.00
14818;BME280;7500;57.698;11.986;2023-01-28T09:29:51;102343.47;;;6.37;100.00
14818;BME280;7500;57.698;11.986;2023-01-28T09:32:18;102355.69;;;6.41;100.00
14818;BME280;7500;57.698;11.986;2023-01-28T09:34:44;102356.53;;;6.45;100.00
14818;BME280;7500;57.698;11.986;2023-01-28T09:37:11;102355.66;;;6.44;100.00
14818;BME280;7500;57.698;11.986;2023-01-28T09:39:39;102346.97;;;6.39;100.00
14818;BME280;7500;57.698;11.986;2023-01-28T09:42:30;102360.06;;;6.42;100.00
14818;BME280;7500;57.698;11.986;2023-01-28T09:45:08;102347.81;;;6.40;100.00
14818;BME280;7500;57.698;11.986;2023-01-28T09:47:40;102337.34;;;6.38;100.00
14818;BME280;7500;57.698;11.986;2023-01-28T09:50:14;102338.25;;;6.34;100.00
14818;BME280;7500;57.698;11.986;2023-01-28T09:52:44;102336.53;;;6.33;100.00
14818;BME280;7500;57.698;11.986;2023-01-28T09:55:21;102339.16;;;6.30;100.00
14818;BME280;7500;57.698;11.986;2023-01-28T09:57:51;102338.25;;;6.34;100.00
14818;BME280;7500;57.698;11.986;2023-01-28T10:00:24;102352.31;;;6.27;100.00
14818;BME280;7500;57.698;11.986;2023-01-28T10:03:11;102347.00;;;6.32;100.00
14818;BME280;7500;57.698;11.986;2023-01-28T10:05:46;102347.00;;;6.33;100.00
14818;BME280;7500;57.698;11.986;2023-01-28T10:08:30;102339.97;;;6.38;100.00
14818;BME280;7500;57.698;11.986;2023-01-28T10:11:11;102339.97;;;6.37;100.00
14818;BME280;7500;57.698;11.986;2023-01-28T10:13:45;102339.97;;;6.38;100.00
14818;BME280;7500;57.698;11.986;2023-01-28T10:16:23;102338.19;;;6.43;100.00
14818;BME280;7500;57.698;11.986;2023-01-28T10:18:56;102318.09;;;6.38;100.00
14818;BME280;7500;57.698;11.986;2023-01-28T10:21:28;102320.63;;;6.50;100.00
14818;BME280;7500;57.698;11.986;2023-01-28T10:24:02;102303.25;;;6.38;100.00
14818;BME280;7500;57.698;11.986;2023-01-28T10:26:34;102317.16;;;6.45;100.00
14818;BME280;7500;57.698;11.986;2023-01-28T10:29:04;102321.59;;;6.41;100.00
14818;BME280;7500;57.698;11.986;2023-01-28T10:31:41;102321.53;;;6.46;100.00
14818;BME280;7500;57.698;11.986;2023-01-28T10:34:10;102318.81;;;6.53;100.00
14818;BME280;7500;57.698;11.986;2023-01-28T10:36:37;102311.78;;;6.58;100.00
14818;BME280;7500;57.698;11.986;2023-01-28T10:39:04;102298.63;;;6.63;100.00
14818;BME280;7500;57.698;11.986;2023-01-28T10:41:33;102309.09;;;6.64;100.00
14818;BME280;7500;57.698;11.986;2023-01-28T10:44:00;102302.19;;;6.56;100.00
14818;BME280;7500;57.698;11.986;2023-01-28T10:46:30;102296.94;;;6.54;100.00
14818;BME280;7500;57.698;11.986;2023-01-28T10:49:04;102306.44;;;6.66;100.00
14818;BME280;7500;57.698;11.986;2023-01-28T10:51:39;102302.09;;;6.63;100.00
14818;BME280;7500;57.698;11.986;2023-01-28T10:54:18;102300.41;;;6.59;100.00
14818;BME280;7500;57.698;11.986;2023-01-28T10:56:45;102301.28;;;6.58;100.00
14818;BME280;7500;57.698;11.986;2023-01-28T10:59:22;102289.03;;;6.57;100.00
14818;BME280;7500;57.698;11.986;2023-01-28T11:01:53;102268.25;;;6.41;100.00
14818;BME280;7500;57.698;11.986;2023-01-28T11:04:25;102300.44;;;6.56;100.00
14818;BME280;7500;57.698;11.986;2023-01-28T11:06:56;102289.03;;;6.57;100.00
14818;BME280;7500;57.698;11.986;2023-01-28T11:09:25;102283.81;;;6.59;100.00
14818;BME280;7500;57.698;11.986;2023-01-28T11:11:52;102269.75;;;6.61;100.00
14818;BME280;7500;57.698;11.986;2023-01-28T11:14:21;102272.34;;;6.67;100.00
14818;BME280;7500;57.698;11.986;2023-01-28T11:16:50;102252.22;;;6.65;100.00
14818;BME280;7500;57.698;11.986;2023-01-28T11:19:18;102260.09;;;6.66;100.00
14818;BME280;7500;57.698;11.986;2023-01-28T11:21:52;102253.88;;;6.71;100.00
14818;BME280;7500;57.698;11.986;2023-01-28T11:24:22;102244.25;;;6.73;100.00
14818;BME280;7500;57.698;11.986;2023-01-28T11:26:52;102230.25;;;6.76;100.00
14818;BME280;7500;57.698;11.986;2023-01-28T11:29:24;102232.00;;;6.74;100.00
14818;BME280;7500;57.698;11.986;2023-01-28T11:31:52;102238.03;;;6.80;100.00
14818;BME280;7500;57.698;11.986;2023-01-28T11:34:19;102240.66;;;6.80;100.00
14818;BME280;7500;57.698;11.986;2023-01-28T11:36:52;102254.66;;;6.82;100.00
14818;BME280;7500;57.698;11.986;2023-01-28T11:39:23;102239.84;;;6.77;100.00
14818;BME280;7500;57.698;11.986;2023-01-28T11:41:53;102241.53;;;6.81;100.00
14818;BME280;7500;57.698;11.986;2023-01-28T11:44:21;102220.53;;;6.81;100.00
14818;BME280;7500;57.698;11.986;2023-01-28T11:46:59;102219.56;;;6.89;100.00
14818;BME280;7500;57.698;11.986;2023-01-28T11:49:36;102218.63;;;6.93;100.00
14818;BME280;7500;57.698;11.986;2023-01-28T11:52:17;102215.03;;;6.97;100.00
14818;BME280;7500;57.698;11.986;2023-01-28T11:54:56;102207.97;;;7.04;100.00
14818;BME280;7500;57.698;11.986;2023-01-28T11:57:32;102186.91;;;7.08;100.00
14818;BME280;7500;57.698;11.986;2023-01-28T12:00:19;102179.69;;;7.21;100.00
14818;BME280;7500;57.698;11.986;2023-01-28T12:02:53;102187.56;;;7.22;100.00
14818;BME280;7500;57.698;11.986;2023-01-28T12:05:40;102197.16;;;7.25;100.00
14818;BME280;7500;57.698;11.986;2023-01-28T12:08:18;102191.94;;;7.22;100.00
14818;BME280;7500;57.698;11.986;2023-01-28T12:10:54;102188.44;;;7.23;100.00
14818;BME280;7500;57.698;11.986;2023-01-28T12:13:35;102196.31;;;7.24;100.00
14818;BME280;7500;57.698;11.986;2023-01-28T12:16:30;102198.00;;;7.28;100.00
14818;BME280;7500;57.698;11.986;2023-01-28T12:19:13;102198.00;;;7.27;100.00
14818;BME280;7500;57.698;11.986;2023-01-28T12:22:02;102210.25;;;7.29;100.00
14818;BME280;7500;57.698;11.986;2023-01-28T12:24:47;102208.47;;;7.30;100.00
14818;BME280;7500;57.698;11.986;2023-01-28T12:27:28;102204.91;;;7.32;100.00
14818;BME280;7500;57.698;11.986;2023-01-28T12:30:05;102209.28;;;7.35;100.00
14818;BME280;7500;57.698;11.986;2023-01-28T12:32:46;102204.03;;;7.35;100.00
14818;BME280;7500;57.698;11.986;2023-01-28T12:35:41;102175.94;;;7.38;100.00
14818;BME280;7500;57.698;11.986;2023-01-28T12:38:20;102166.25;;;7.42;100.00
14818;BME280;7500;57.698;11.986;2023-01-28T12:41:00;102153.00;;;7.48;100.00
14818;BME280;7500;57.698;11.986;2023-01-28T12:43:45;102148.66;;;7.45;100.00
14818;BME280;7500;57.698;11.986;2023-01-28T12:46:25;102148.66;;;7.45;100.00
14818;BME280;7500;57.698;11.986;2023-01-28T12:48:59;102138.06;;;7.51;100.00
14818;BME280;7500;57.698;11.986;2023-01-28T12:51:33;102151.16;;;7.54;100.00
14818;BME280;7500;57.698;11.986;2023-01-28T12:54:05;102144.13;;;7.56;100.00
14818;BME280;7500;57.698;11.986;2023-01-28T12:56:43;102139.56;;;7.66;100.00
14818;BME280;7500;57.698;11.986;2023-01-28T12:59:14;102145.66;;;7.68;100.00
14818;BME280;7500;57.698;11.986;2023-01-28T13:01:45;102133.31;;;7.73;100.00
14818;BME280;7500;57.698;11.986;2023-01-28T13:04:28;102131.53;;;7.75;100.00
14818;BME280;7500;57.698;11.986;2023-01-28T13:06:59;102142.94;;;7.72;100.00
14818;BME280;7500;57.698;11.986;2023-01-28T13:09:29;102131.56;;;7.70;100.00
14818;BME280;7500;57.698;11.986;2023-01-28T13:11:59;102141.16;;;7.74;100.00
14818;BME280;7500;57.698;11.986;2023-01-28T13:14:30;102145.50;;;7.77;100.00